Dayton, Ohio
Current Conditions -  °F | °C
As of 5:58 PM on Monday 20 Oct 2014 (Local Time) from KFFO Reporting Station
Broken Clouds Broken Clouds  
Wind Chill: 58°   Ceiling: 4500
Heat Index: 58°   Visibility: 10mi
Dew Point: 54°   Wind: 7mph
Humidity: 86%   Direction: 230°SW
Pressure: 29.86"   Gusts: NA
Location:  39.76°N, 84.19°W
Report Text: KFFO 202158Z 23006KT 10SM FEW031 BKN045 14/12 A2986 RMK AO2A SLP116 T01440121
Loading
Personal Weather Stations






























Interactive Weather Map
Tropical Storm Tracking
New forecast layout! Learn more

10-Day Weather Forecast

Advertisements
Track Severe Weather on mobile